createdAt,value
2022-10-17T00:02:12.759Z,7.40
2022-10-17T00:04:39.207Z,8.13
2022-10-17T00:07:05.595Z,8.38
2022-10-17T00:09:32.101Z,7.68
2022-10-17T00:11:58.657Z,9.43
2022-10-17T00:14:25.062Z,8.20
2022-10-17T00:16:51.431Z,8.25
2022-10-17T00:19:17.834Z,8.15
2022-10-17T00:21:44.274Z,8.00
2022-10-17T00:24:10.679Z,10.38
2022-10-17T00:26:37.054Z,10.43
2022-10-17T00:29:03.602Z,10.15
2022-10-17T00:31:30.026Z,11.10
2022-10-17T00:33:56.429Z,10.30
2022-10-17T00:36:25.368Z,12.38
2022-10-17T00:38:57.459Z,10.27
2022-10-17T00:41:27.313Z,12.57
2022-10-17T00:44:05.715Z,13.95
2022-10-17T00:46:38.510Z,12.18
2022-10-17T00:49:08.290Z,12.43
2022-10-17T00:51:41.583Z,12.35
2022-10-17T00:54:09.998Z,13.80
2022-10-17T00:56:36.929Z,13.80
2022-10-17T00:59:03.810Z,12.95
2022-10-17T01:01:30.603Z,12.65
2022-10-17T01:03:57.047Z,13.40
2022-10-17T01:06:23.487Z,14.27
2022-10-17T01:08:49.969Z,12.25
2022-10-17T01:11:28.185Z,14.93
2022-10-17T01:14:09.097Z,14.07
2022-10-17T01:17:08.507Z,16.17
2022-10-17T01:20:10.027Z,16.40
2022-10-17T01:22:42.334Z,17.50
2022-10-17T01:25:27.678Z,18.58
2022-10-17T01:28:11.566Z,18.15
2022-10-17T01:30:46.938Z,18.20
2022-10-17T01:33:36.447Z,17.70
2022-10-17T01:36:12.843Z,17.25
2022-10-17T01:38:59.500Z,17.50
2022-10-17T01:41:42.238Z,18.30
2022-10-17T01:44:14.876Z,19.15
2022-10-17T01:46:54.382Z,17.67
2022-10-17T01:49:26.207Z,18.40
2022-10-17T01:52:02.979Z,19.90
2022-10-17T01:54:51.650Z,19.55
2022-10-17T01:57:29.026Z,18.52
2022-10-17T01:59:57.024Z,18.45
2022-10-17T02:02:25.843Z,17.77
2022-10-17T02:04:54.001Z,18.67
2022-10-17T02:07:20.458Z,18.67
2022-10-17T02:09:46.895Z,21.23
2022-10-17T02:12:24.048Z,19.97
2022-10-17T02:15:20.877Z,18.92
2022-10-17T02:20:16.250Z,20.10
2022-10-17T02:22:52.020Z,20.33
2022-10-17T02:25:31.311Z,20.95
2022-10-17T02:28:22.676Z,19.88
2022-10-17T02:30:56.185Z,21.70
2022-10-17T02:33:30.939Z,21.10
2022-10-17T02:36:03.157Z,22.23
2022-10-17T02:38:31.395Z,21.45
2022-10-17T02:40:57.975Z,22.27
2022-10-17T02:43:24.832Z,21.87
2022-10-17T02:45:52.467Z,21.75
2022-10-17T02:48:35.639Z,22.48
2022-10-17T02:51:20.297Z,21.40
2022-10-17T02:53:55.292Z,22.17
2022-10-17T02:56:22.388Z,21.60
2022-10-17T02:58:56.082Z,21.35
2022-10-17T03:01:23.113Z,22.40
2022-10-17T03:03:49.609Z,21.17
2022-10-17T03:06:16.135Z,22.05
2022-10-17T03:08:42.655Z,20.67
2022-10-17T03:11:09.118Z,21.53
2022-10-17T03:13:38.951Z,21.70
2022-10-17T03:16:06.457Z,21.23
2022-10-17T03:18:32.830Z,22.13
2022-10-17T03:20:59.234Z,21.67
2022-10-17T03:23:25.634Z,20.58
2022-10-17T03:25:52.004Z,22.35
2022-10-17T03:28:18.447Z,21.27
2022-10-17T03:30:44.798Z,21.63
2022-10-17T03:33:11.245Z,21.05
2022-10-17T03:35:40.309Z,20.98
2022-10-17T03:38:06.778Z,23.30
2022-10-17T03:40:33.189Z,23.60
2022-10-17T03:42:59.593Z,23.60
2022-10-17T03:45:25.943Z,25.33
2022-10-17T03:47:52.343Z,24.98
2022-10-17T03:50:18.705Z,23.95
2022-10-17T03:52:49.153Z,24.02
2022-10-17T03:55:16.320Z,23.02
2022-10-17T03:57:45.444Z,23.25
2022-10-17T04:00:13.092Z,23.65
2022-10-17T04:02:39.687Z,23.58
2022-10-17T04:05:06.751Z,22.93
2022-10-17T04:07:33.154Z,23.13
2022-10-17T04:09:59.576Z,22.75
2022-10-17T04:12:25.983Z,24.70
2022-10-17T04:14:52.447Z,23.88
2022-10-17T04:17:18.914Z,24.67
2022-10-17T04:19:45.416Z,24.38
2022-10-17T04:22:11.825Z,25.33
2022-10-17T04:24:38.224Z,23.77
2022-10-17T04:27:04.697Z,23.23
2022-10-17T04:29:31.196Z,24.37
2022-10-17T04:31:57.685Z,24.30
2022-10-17T04:34:24.073Z,25.58
2022-10-17T04:36:51.891Z,25.00
2022-10-17T04:39:18.568Z,24.42
2022-10-17T04:41:45.003Z,23.48
2022-10-17T04:44:11.550Z,24.20
2022-10-17T04:46:38.099Z,24.33
2022-10-17T04:49:04.817Z,25.23
2022-10-17T04:51:31.249Z,26.30
2022-10-17T04:53:57.672Z,25.92
2022-10-17T04:56:24.923Z,27.45
2022-10-17T04:58:52.310Z,25.38
2022-10-17T05:03:47.214Z,26.95
2022-10-17T05:06:16.437Z,25.50
2022-10-17T05:08:42.944Z,26.88
2022-10-17T05:11:38.897Z,26.93
2022-10-17T05:14:05.510Z,26.50
2022-10-17T05:16:31.974Z,28.63
2022-10-17T05:18:59.142Z,28.45
2022-10-17T05:21:27.256Z,27.13
2022-10-17T05:23:53.840Z,27.45
2022-10-17T05:26:21.021Z,29.43
2022-10-17T05:28:47.587Z,28.00
2022-10-17T05:31:14.489Z,28.60
2022-10-17T05:33:41.146Z,28.98
2022-10-17T05:36:08.427Z,27.50
2022-10-17T05:38:35.016Z,28.40
2022-10-17T05:41:05.960Z,28.92
2022-10-17T05:43:33.432Z,29.35
2022-10-17T05:48:28.975Z,28.70
2022-10-17T05:50:59.979Z,28.63
2022-10-17T05:53:26.771Z,28.30
2022-10-17T05:56:00.631Z,28.67
2022-10-17T06:03:40.586Z,28.42
2022-10-17T06:06:12.069Z,29.60
2022-10-17T06:08:38.637Z,27.45
2022-10-17T06:11:09.122Z,27.40
2022-10-17T06:13:37.057Z,27.65
2022-10-17T06:16:03.532Z,28.70
2022-10-17T06:18:29.986Z,27.97
2022-10-17T06:21:03.477Z,27.45
2022-10-17T06:23:30.211Z,26.40
2022-10-17T06:26:01.815Z,25.13
2022-10-17T06:28:28.748Z,25.75
2022-10-17T06:30:55.177Z,25.20
2022-10-17T06:33:23.239Z,25.63
2022-10-17T06:35:54.507Z,25.33
2022-10-17T06:38:21.439Z,24.27
2022-10-17T06:40:48.005Z,24.88
2022-10-17T06:43:14.652Z,26.00
2022-10-17T06:45:41.772Z,25.13
2022-10-17T06:48:08.459Z,24.38
2022-10-17T06:50:35.313Z,22.95
2022-10-17T06:53:01.712Z,24.00
2022-10-17T06:55:28.067Z,23.40
2022-10-17T06:57:55.825Z,21.80
2022-10-17T07:00:23.367Z,22.15
2022-10-17T07:02:49.843Z,22.25
2022-10-17T07:05:16.346Z,21.47
2022-10-17T07:07:44.785Z,21.10
2022-10-17T07:10:12.837Z,21.23
2022-10-17T07:12:39.342Z,20.50
2022-10-17T07:15:06.140Z,19.47
2022-10-17T07:17:32.655Z,20.48
2022-10-17T07:19:59.392Z,19.88
2022-10-17T07:22:26.010Z,19.27
2022-10-17T07:24:52.455Z,18.75
2022-10-17T07:27:18.864Z,19.33
2022-10-17T07:29:45.249Z,18.87
2022-10-17T07:32:11.615Z,18.87
2022-10-17T07:34:38.094Z,18.93
2022-10-17T07:37:06.894Z,18.48
2022-10-17T07:39:35.554Z,18.67
2022-10-17T07:42:02.038Z,17.95
2022-10-17T07:44:28.473Z,18.50
2022-10-17T07:46:54.917Z,17.17
2022-10-17T07:49:21.265Z,17.73
2022-10-17T07:51:48.119Z,18.53
2022-10-17T07:54:14.515Z,17.63
2022-10-17T07:56:40.953Z,17.30
2022-10-17T07:59:09.418Z,16.25
2022-10-17T08:01:36.936Z,16.70
2022-10-17T08:06:29.782Z,16.63
2022-10-17T08:08:57.847Z,16.95
2022-10-17T08:11:25.333Z,17.00
2022-10-17T08:13:51.813Z,17.15
2022-10-17T08:16:18.299Z,16.88
2022-10-17T08:18:44.855Z,16.80
2022-10-17T08:21:13.446Z,17.10
2022-10-17T08:23:40.244Z,16.45
2022-10-17T08:26:10.505Z,17.30
2022-10-17T08:28:38.614Z,15.98
2022-10-17T08:31:13.593Z,16.50
2022-10-17T08:33:40.916Z,16.15
2022-10-17T08:36:08.588Z,16.50
2022-10-17T08:38:36.932Z,17.60
2022-10-17T08:41:11.698Z,16.67
2022-10-17T08:44:03.657Z,16.77
2022-10-17T08:46:36.513Z,17.27
2022-10-17T08:49:07.673Z,16.65
2022-10-17T08:51:53.112Z,16.45
2022-10-17T08:54:40.691Z,17.15
2022-10-17T08:57:13.042Z,17.20
2022-10-17T08:59:39.585Z,17.38
2022-10-17T09:02:37.016Z,16.80
2022-10-17T09:05:49.276Z,16.80
2022-10-17T09:08:31.681Z,15.93
2022-10-17T09:11:25.066Z,16.38
2022-10-17T09:14:09.829Z,16.35
2022-10-17T09:16:49.933Z,16.42
2022-10-17T09:19:36.754Z,16.02
2022-10-17T09:24:42.541Z,15.73
2022-10-17T09:27:22.443Z,15.53
2022-10-17T09:29:50.875Z,15.93
2022-10-17T09:32:21.959Z,15.10
2022-10-17T09:34:48.813Z,15.30
2022-10-17T09:37:17.095Z,15.45
2022-10-17T09:39:44.625Z,14.98
2022-10-17T09:42:19.314Z,14.75
2022-10-17T09:44:54.595Z,15.75
2022-10-17T09:47:28.357Z,14.27
2022-10-17T09:49:55.043Z,13.88
2022-10-17T09:52:35.275Z,14.63
2022-10-17T09:55:04.396Z,13.68
2022-10-17T09:57:52.644Z,14.02
2022-10-17T10:00:28.168Z,14.40
2022-10-17T10:03:12.914Z,13.02
2022-10-17T10:05:40.162Z,13.73
2022-10-17T10:13:12.909Z,12.60
2022-10-17T10:15:42.376Z,12.10
2022-10-17T10:18:35.096Z,12.82
2022-10-17T10:21:17.313Z,12.95
2022-10-17T10:23:45.544Z,12.68
2022-10-17T10:26:21.025Z,12.63
2022-10-17T10:29:20.881Z,13.32
2022-10-17T10:31:47.622Z,12.38
2022-10-17T10:34:20.264Z,12.90
2022-10-17T10:36:54.752Z,12.85
2022-10-17T10:39:29.471Z,14.10
2022-10-17T10:41:55.955Z,13.07
2022-10-17T10:44:26.221Z,14.43
2022-10-17T10:47:15.070Z,13.93
2022-10-17T10:49:42.100Z,14.60
2022-10-17T10:52:15.919Z,13.68
2022-10-17T10:54:51.354Z,14.05
2022-10-17T10:57:21.148Z,14.27
2022-10-17T10:59:58.335Z,14.40
2022-10-17T11:02:36.857Z,14.65
2022-10-17T11:05:44.153Z,13.90
2022-10-17T11:08:14.088Z,13.63
2022-10-17T11:11:19.772Z,14.10
2022-10-17T11:13:58.306Z,14.50
2022-10-17T11:16:36.811Z,13.90
2022-10-17T11:19:28.421Z,13.52
2022-10-17T11:22:02.541Z,13.90
2022-10-17T11:24:35.950Z,13.23
2022-10-17T11:27:05.260Z,13.77
2022-10-17T11:29:34.012Z,13.98
2022-10-17T11:32:06.482Z,14.02
2022-10-17T11:34:39.289Z,13.95
2022-10-17T11:37:13.762Z,14.00
2022-10-17T11:39:50.322Z,13.77
2022-10-17T11:42:31.654Z,13.57
2022-10-17T11:45:08.602Z,14.27
2022-10-17T11:47:40.689Z,12.98
2022-10-17T11:53:21.783Z,14.18
2022-10-17T11:55:50.467Z,13.65
2022-10-17T11:58:35.843Z,13.18
2022-10-17T12:01:23.767Z,12.70
2022-10-17T12:04:11.499Z,13.65
2022-10-17T12:07:02.072Z,13.68
2022-10-17T12:09:46.043Z,13.80
2022-10-17T12:12:25.747Z,13.40
2022-10-17T12:14:52.707Z,13.45
2022-10-17T12:17:32.435Z,12.90
2022-10-17T12:20:21.236Z,13.20
2022-10-17T12:22:48.784Z,14.13
2022-10-17T12:27:48.223Z,14.20
2022-10-17T12:30:23.931Z,13.73
2022-10-17T12:33:25.680Z,13.10
2022-10-17T12:36:17.692Z,14.35
2022-10-17T12:38:50.264Z,12.82
2022-10-17T12:41:17.341Z,13.63
2022-10-17T12:43:52.570Z,13.20
2022-10-17T12:46:42.918Z,13.02
2022-10-17T12:49:43.448Z,13.35
2022-10-17T12:52:15.978Z,13.52
2022-10-17T12:55:00.322Z,13.73
2022-10-17T12:57:33.784Z,13.00
2022-10-17T13:00:05.228Z,13.67
2022-10-17T13:02:33.041Z,12.30
2022-10-17T13:05:19.258Z,12.98
2022-10-17T13:07:49.216Z,13.05
2022-10-17T13:13:11.586Z,13.38
2022-10-17T13:15:37.997Z,13.80
2022-10-17T13:18:04.662Z,13.27
2022-10-17T13:20:32.065Z,12.60
2022-10-17T13:22:59.464Z,12.90
2022-10-17T13:25:27.202Z,12.80
2022-10-17T13:28:05.721Z,13.27
2022-10-17T13:30:34.973Z,13.73
2022-10-17T13:33:02.161Z,12.55
2022-10-17T13:38:26.066Z,12.95
2022-10-17T13:41:01.374Z,13.02
2022-10-17T13:43:32.886Z,13.23
2022-10-17T13:46:19.303Z,13.07
2022-10-17T13:48:50.546Z,13.13
2022-10-17T13:51:17.036Z,13.18
2022-10-17T13:53:44.463Z,13.68
2022-10-17T13:56:28.324Z,12.55
2022-10-17T13:59:03.480Z,12.20
2022-10-17T14:01:30.899Z,12.80
2022-10-17T14:04:09.029Z,13.18
2022-10-17T14:06:45.162Z,12.32
2022-10-17T14:09:26.803Z,12.50
2022-10-17T14:12:08.533Z,11.70
2022-10-17T14:14:58.099Z,12.02
2022-10-17T14:17:27.648Z,12.77
2022-10-17T14:20:14.194Z,12.98
2022-10-17T14:22:50.430Z,13.15
2022-10-17T14:25:35.297Z,13.30
2022-10-17T14:28:22.510Z,13.07
2022-10-17T14:30:57.315Z,13.38
2022-10-17T14:33:29.843Z,13.13
2022-10-17T14:35:58.432Z,13.68
2022-10-17T14:38:25.604Z,12.65
2022-10-17T14:41:41.466Z,13.70
2022-10-17T14:44:23.558Z,13.05
2022-10-17T14:46:54.551Z,13.77
2022-10-17T14:49:36.104Z,13.52
2022-10-17T14:52:18.774Z,13.65
2022-10-17T14:54:49.659Z,13.52
2022-10-17T14:57:22.184Z,14.02
2022-10-17T14:59:56.075Z,14.23
2022-10-17T15:02:24.576Z,13.45
2022-10-17T15:04:51.468Z,14.48
2022-10-17T15:07:18.392Z,14.43
2022-10-17T15:09:47.239Z,15.52
2022-10-17T15:12:16.686Z,14.20
2022-10-17T15:14:44.140Z,14.90
2022-10-17T15:17:15.317Z,14.18
2022-10-17T15:19:41.812Z,15.32
2022-10-17T15:22:08.226Z,14.85
2022-10-17T15:24:34.640Z,14.77
2022-10-17T15:27:01.094Z,15.20
2022-10-17T15:29:28.295Z,14.88
2022-10-17T15:34:21.086Z,15.18
2022-10-17T15:36:51.879Z,15.77
2022-10-17T15:39:18.292Z,15.65
2022-10-17T15:41:44.857Z,15.40
2022-10-17T15:44:11.358Z,15.95
2022-10-17T15:46:40.469Z,15.60
2022-10-17T15:49:11.259Z,15.70
2022-10-17T15:51:37.925Z,15.82
2022-10-17T15:54:05.607Z,16.98
2022-10-17T15:56:37.335Z,16.55
2022-10-17T15:59:12.140Z,16.13
2022-10-17T16:01:39.426Z,15.85
2022-10-17T16:06:32.495Z,17.10
2022-10-17T16:08:58.918Z,16.48
2022-10-17T16:11:31.424Z,16.67
2022-10-17T16:14:00.469Z,17.67
2022-10-17T16:16:27.280Z,18.27
2022-10-17T16:18:54.003Z,17.83
2022-10-17T16:21:25.210Z,18.25
2022-10-17T16:23:52.451Z,17.75
2022-10-17T16:26:19.291Z,18.25
2022-10-17T16:28:46.481Z,17.75
2022-10-17T16:33:48.206Z,18.08
2022-10-17T16:36:14.642Z,18.15
2022-10-17T16:38:41.033Z,19.00
2022-10-17T16:41:37.302Z,18.77
2022-10-17T16:44:06.678Z,18.35
2022-10-17T16:46:35.481Z,18.80
2022-10-17T16:49:04.776Z,18.65
2022-10-17T16:51:33.635Z,19.08
2022-10-17T16:54:00.302Z,18.48
2022-10-17T16:56:32.622Z,18.77
2022-10-17T16:59:00.647Z,18.52
2022-10-17T17:01:29.314Z,19.30
2022-10-17T17:03:56.197Z,18.38
2022-10-17T17:06:29.347Z,18.50
2022-10-17T17:08:56.405Z,17.85
2022-10-17T17:11:25.542Z,18.40
2022-10-17T17:13:52.243Z,18.13
2022-10-17T17:16:21.502Z,17.70
2022-10-17T17:18:50.802Z,17.45
2022-10-17T17:21:17.453Z,18.27
2022-10-17T17:23:43.847Z,18.73
2022-10-17T17:26:16.946Z,18.37
2022-10-17T17:28:43.856Z,17.75
2022-10-17T17:31:12.819Z,19.05
2022-10-17T17:33:40.737Z,18.88
2022-10-17T17:36:08.114Z,19.05
2022-10-17T17:43:28.470Z,18.48
2022-10-17T17:45:54.915Z,19.55
2022-10-17T17:48:21.712Z,20.23
2022-10-17T17:50:48.516Z,18.50
2022-10-17T17:53:16.164Z,18.15
2022-10-17T17:55:42.635Z,19.02
2022-10-17T17:58:09.796Z,19.00
2022-10-17T18:00:36.351Z,18.58
2022-10-17T18:03:03.332Z,19.43
2022-10-17T18:05:29.898Z,18.73
2022-10-17T18:07:56.365Z,18.88
2022-10-17T18:10:22.747Z,18.97
2022-10-17T18:12:49.178Z,18.10
2022-10-17T18:15:15.913Z,18.43
2022-10-17T18:17:42.559Z,18.88
2022-10-17T18:20:09.673Z,18.58
2022-10-17T18:22:36.074Z,19.60
2022-10-17T18:25:02.523Z,18.17
2022-10-17T18:27:28.912Z,20.23
2022-10-17T18:29:55.318Z,19.50
2022-10-17T18:32:21.803Z,19.13
2022-10-17T18:34:48.163Z,18.37
2022-10-17T18:37:14.587Z,19.48
2022-10-17T18:39:41.052Z,19.33
2022-10-17T18:42:07.765Z,18.33
2022-10-17T18:44:34.271Z,18.73
2022-10-17T18:47:03.872Z,20.87
2022-10-17T18:49:31.412Z,17.25
2022-10-17T18:51:59.453Z,17.67
2022-10-17T18:54:25.881Z,19.23
2022-10-17T18:56:54.650Z,19.57
2022-10-17T18:59:21.164Z,19.08
2022-10-17T19:01:48.542Z,19.27
2022-10-17T19:06:43.068Z,20.00
2022-10-17T19:09:11.147Z,19.60
2022-10-17T19:11:38.540Z,18.77
2022-10-17T19:16:37.587Z,18.95
2022-10-17T19:19:06.697Z,19.92
2022-10-17T19:21:34.009Z,20.83
2022-10-17T19:26:30.523Z,20.83
2022-10-17T19:28:57.298Z,21.02
2022-10-17T19:31:27.298Z,21.83
2022-10-17T19:33:55.438Z,21.83
2022-10-17T19:36:26.316Z,21.67
2022-10-17T19:38:56.294Z,20.02
2022-10-17T19:41:23.214Z,21.65
2022-10-17T19:43:50.097Z,21.10
2022-10-17T19:46:19.664Z,20.83
2022-10-17T19:48:47.881Z,20.80
2022-10-17T19:51:15.965Z,21.13
2022-10-17T19:53:42.953Z,21.30
2022-10-17T19:56:11.665Z,21.67
2022-10-17T19:58:45.241Z,21.45
2022-10-17T20:01:23.493Z,21.33
2022-10-17T20:03:50.581Z,21.58
2022-10-17T20:06:17.637Z,21.45
2022-10-17T20:08:44.395Z,20.38
2022-10-17T20:11:15.314Z,20.85
2022-10-17T20:13:42.236Z,21.35
2022-10-17T20:16:12.124Z,22.77
2022-10-17T20:18:40.638Z,22.02
2022-10-17T20:21:10.977Z,21.48
2022-10-17T20:23:38.532Z,20.75
2022-10-17T20:26:25.346Z,22.83
2022-10-17T20:28:53.081Z,21.58
2022-10-17T20:31:20.435Z,22.95
2022-10-17T20:33:47.024Z,23.08
2022-10-17T20:36:14.521Z,22.58
2022-10-17T20:38:40.901Z,21.95
2022-10-17T20:41:09.384Z,21.77
2022-10-17T20:43:36.768Z,23.30
2022-10-17T20:48:54.124Z,22.58
2022-10-17T20:51:21.311Z,22.50
2022-10-17T20:53:48.773Z,21.90
2022-10-17T20:56:21.481Z,21.52
2022-10-17T20:58:56.480Z,22.42
2022-10-17T21:01:24.158Z,21.35
2022-10-17T21:03:50.790Z,22.45
2022-10-17T21:06:18.019Z,23.67
2022-10-17T21:08:46.078Z,22.27
2022-10-17T21:11:15.290Z,22.45
2022-10-17T21:13:42.192Z,24.38
2022-10-17T21:16:16.941Z,22.33
2022-10-17T21:18:43.737Z,22.38
2022-10-17T21:21:21.995Z,22.35
2022-10-17T21:23:49.751Z,23.05
2022-10-17T21:26:17.696Z,22.85
2022-10-17T21:28:46.047Z,21.90
2022-10-17T21:31:16.191Z,21.38
2022-10-17T21:33:48.802Z,23.92
2022-10-17T21:36:16.808Z,22.15
2022-10-17T21:38:45.197Z,23.63
2022-10-17T21:41:13.967Z,22.67
2022-10-17T21:43:41.578Z,23.63
2022-10-17T21:46:17.027Z,22.58
2022-10-17T21:48:44.460Z,23.02
2022-10-17T21:53:39.020Z,22.65
2022-10-17T21:56:08.012Z,22.60
2022-10-17T21:58:34.488Z,22.27
2022-10-17T22:01:11.028Z,22.60
2022-10-17T22:03:42.747Z,22.15
2022-10-17T22:09:00.694Z,23.52
2022-10-17T22:11:30.652Z,24.83
2022-10-17T22:14:10.838Z,21.92
2022-10-17T22:16:38.158Z,24.52
2022-10-17T22:19:06.625Z,23.00
2022-10-17T22:21:35.215Z,22.70
2022-10-17T22:24:06.139Z,23.23
2022-10-17T22:26:34.123Z,22.88
2022-10-17T22:29:01.028Z,23.73
2022-10-17T22:31:27.668Z,24.35
2022-10-17T22:33:54.187Z,23.15
2022-10-17T22:36:20.772Z,24.15
2022-10-17T22:38:47.478Z,23.02
2022-10-17T22:41:14.002Z,22.53
2022-10-17T22:43:40.395Z,23.93
2022-10-17T22:46:07.862Z,22.90
2022-10-17T22:51:01.361Z,22.92
2022-10-17T22:53:29.526Z,22.05
2022-10-17T22:56:01.326Z,21.75
2022-10-17T22:58:29.254Z,22.35
2022-10-17T23:00:56.159Z,22.35
2022-10-17T23:03:23.738Z,23.73
2022-10-17T23:05:51.007Z,22.38
2022-10-17T23:08:18.263Z,22.17
2022-10-17T23:10:45.849Z,23.30
2022-10-17T23:13:13.127Z,23.25
2022-10-17T23:15:39.898Z,22.17
2022-10-17T23:18:06.717Z,23.77
2022-10-17T23:20:33.098Z,21.55
2022-10-17T23:22:59.520Z,22.73
2022-10-17T23:25:26.302Z,22.23
2022-10-17T23:27:53.211Z,23.30
2022-10-17T23:30:19.655Z,22.65
2022-10-17T23:32:46.082Z,23.65
2022-10-17T23:35:12.510Z,22.05
2022-10-17T23:37:38.903Z,21.98
2022-10-17T23:40:06.405Z,23.08
2022-10-17T23:42:32.767Z,22.83
2022-10-17T23:44:59.127Z,22.05
2022-10-17T23:47:25.511Z,22.23
2022-10-17T23:49:51.978Z,20.63
2022-10-17T23:52:18.375Z,23.05
2022-10-17T23:54:44.840Z,22.63
2022-10-17T23:57:11.273Z,22.02
2022-10-17T23:59:37.654Z,21.60
